Terminal Aerodrome Forecast
Issued by NWS

Home | Current Version | Previous Version | Text Only | Print | Product List | Glossary On
Versions: 1 2 3 4 5 6 7 8 9 10 11 12 13 14
000
FTUS41 KLWX 301738
TAFMTN
TAF
KMTN 301738Z 3018/0118 18012G20KT P6SM VCTS BKN050CB
      TEMPO 3018/3019 1 1/2SM TSRA BKN020CB OVC050
     FM302200 17009KT P6SM -TSRA BKN045CB
     FM010200 15005KT P6SM -TSRA BKN050CB
     FM010400 16004KT P6SM VCTS BKN050CB
     FM010600 VRB03KT P6SM OVC050
     FM011400 25005KT P6SM SCT050=

USA.gov is the U.S. government's official web portal to all federal, state and local government web resources and services.